sensor_id;sensor_type;location;lat;lon;timestamp;P1;durP1;ratioP1;P2;durP2;ratioP2
36715;SDS011;22699;51.034;3.730;2022-08-04T00:01:23;4.65;;;1.67;;
36715;SDS011;22699;51.034;3.730;2022-08-04T00:04:01;4.88;;;1.77;;
36715;SDS011;22699;51.034;3.730;2022-08-04T00:09:22;5.85;;;1.95;;
36715;SDS011;22699;51.034;3.730;2022-08-04T00:11:56;5.43;;;1.55;;
36715;SDS011;22699;51.034;3.730;2022-08-04T00:14:26;6.65;;;2.63;;
36715;SDS011;22699;51.034;3.730;2022-08-04T00:16:58;7.32;;;2.00;;
36715;SDS011;22699;51.034;3.730;2022-08-04T00:19:28;5.15;;;2.47;;
36715;SDS011;22699;51.034;3.730;2022-08-04T00:22:02;3.08;;;1.63;;
36715;SDS011;22699;51.034;3.730;2022-08-04T00:24:30;3.15;;;1.27;;
36715;SDS011;22699;51.034;3.730;2022-08-04T00:26:56;7.15;;;1.75;;
36715;SDS011;22699;51.034;3.730;2022-08-04T00:29:23;7.65;;;1.60;;
36715;SDS011;22699;51.034;3.730;2022-08-04T00:31:52;7.28;;;1.75;;
36715;SDS011;22699;51.034;3.730;2022-08-04T00:34:20;3.15;;;1.42;;
36715;SDS011;22699;51.034;3.730;2022-08-04T00:36:48;7.78;;;1.48;;
36715;SDS011;22699;51.034;3.730;2022-08-04T00:39:15;6.95;;;1.98;;
36715;SDS011;22699;51.034;3.730;2022-08-04T00:44:33;5.25;;;1.77;;
36715;SDS011;22699;51.034;3.730;2022-08-04T00:52:28;9.05;;;2.30;;
36715;SDS011;22699;51.034;3.730;2022-08-04T00:55:31;7.00;;;2.42;;
36715;SDS011;22699;51.034;3.730;2022-08-04T01:01:21;5.63;;;2.63;;
36715;SDS011;22699;51.034;3.730;2022-08-04T01:03:49;7.55;;;2.80;;
36715;SDS011;22699;51.034;3.730;2022-08-04T01:06:47;10.27;;;3.20;;
36715;SDS011;22699;51.034;3.730;2022-08-04T01:11:58;8.68;;;3.00;;
36715;SDS011;22699;51.034;3.730;2022-08-04T01:30:37;10.38;;;2.72;;
36715;SDS011;22699;51.034;3.730;2022-08-04T01:33:08;5.43;;;2.40;;
36715;SDS011;22699;51.034;3.730;2022-08-04T01:35:41;7.45;;;2.75;;
36715;SDS011;22699;51.034;3.730;2022-08-04T01:38:16;5.57;;;2.67;;
36715;SDS011;22699;51.034;3.730;2022-08-04T01:40:51;6.30;;;2.53;;
36715;SDS011;22699;51.034;3.730;2022-08-04T01:43:20;6.75;;;2.38;;
36715;SDS011;22699;51.034;3.730;2022-08-04T01:45:52;4.15;;;2.85;;
36715;SDS011;22699;51.034;3.730;2022-08-04T01:48:22;5.10;;;2.42;;
36715;SDS011;22699;51.034;3.730;2022-08-04T01:50:51;5.65;;;2.42;;
36715;SDS011;22699;51.034;3.730;2022-08-04T01:53:18;4.70;;;2.92;;
36715;SDS011;22699;51.034;3.730;2022-08-04T01:55:48;6.57;;;2.58;;
36715;SDS011;22699;51.034;3.730;2022-08-04T01:58:18;3.65;;;2.22;;
36715;SDS011;22699;51.034;3.730;2022-08-04T02:00:49;6.47;;;2.78;;
36715;SDS011;22699;51.034;3.730;2022-08-04T02:03:24;7.63;;;2.95;;
36715;SDS011;22699;51.034;3.730;2022-08-04T02:05:54;6.35;;;2.63;;
36715;SDS011;22699;51.034;3.730;2022-08-04T02:09:07;7.80;;;2.67;;
36715;SDS011;22699;51.034;3.730;2022-08-04T02:11:25;6.18;;;2.40;;
36715;SDS011;22699;51.034;3.730;2022-08-04T02:19:40;5.30;;;2.45;;
36715;SDS011;22699;51.034;3.730;2022-08-04T02:22:25;6.30;;;2.70;;
36715;SDS011;22699;51.034;3.730;2022-08-04T02:25:13;4.60;;;1.90;;
36715;SDS011;22699;51.034;3.730;2022-08-04T02:27:47;6.82;;;2.25;;
36715;SDS011;22699;51.034;3.730;2022-08-04T02:30:33;5.63;;;2.10;;
36715;SDS011;22699;51.034;3.730;2022-08-04T02:33:22;10.07;;;2.97;;
36715;SDS011;22699;51.034;3.730;2022-08-04T02:36:00;3.75;;;2.15;;
36715;SDS011;22699;51.034;3.730;2022-08-04T02:41:17;7.55;;;2.40;;
36715;SDS011;22699;51.034;3.730;2022-08-04T02:43:46;6.53;;;2.83;;
36715;SDS011;22699;51.034;3.730;2022-08-04T02:46:17;5.07;;;2.10;;
36715;SDS011;22699;51.034;3.730;2022-08-04T02:48:44;7.13;;;2.30;;
36715;SDS011;22699;51.034;3.730;2022-08-04T02:51:12;6.68;;;2.78;;
36715;SDS011;22699;51.034;3.730;2022-08-04T02:53:40;6.30;;;2.58;;
36715;SDS011;22699;51.034;3.730;2022-08-04T02:56:08;8.30;;;2.63;;
36715;SDS011;22699;51.034;3.730;2022-08-04T02:58:38;7.75;;;2.28;;
36715;SDS011;22699;51.034;3.730;2022-08-04T03:01:09;7.28;;;2.72;;
36715;SDS011;22699;51.034;3.730;2022-08-04T03:17:20;9.65;;;2.35;;
36715;SDS011;22699;51.034;3.730;2022-08-04T03:34:21;8.02;;;2.80;;
36715;SDS011;22699;51.034;3.730;2022-08-04T03:51:37;7.97;;;3.50;;
36715;SDS011;22699;51.034;3.730;2022-08-04T03:57:46;9.43;;;3.20;;
36715;SDS011;22699;51.034;3.730;2022-08-04T04:00:54;8.27;;;3.20;;
36715;SDS011;22699;51.034;3.730;2022-08-04T04:03:34;6.40;;;3.03;;
36715;SDS011;22699;51.034;3.730;2022-08-04T04:06:32;7.35;;;3.22;;
36715;SDS011;22699;51.034;3.730;2022-08-04T04:23:10;6.32;;;3.50;;
36715;SDS011;22699;51.034;3.730;2022-08-04T04:31:24;7.60;;;3.78;;
36715;SDS011;22699;51.034;3.730;2022-08-04T04:34:19;10.38;;;2.95;;
36715;SDS011;22699;51.034;3.730;2022-08-04T04:46:05;10.75;;;3.95;;
36715;SDS011;22699;51.034;3.730;2022-08-04T04:48:29;9.40;;;3.22;;
36715;SDS011;22699;51.034;3.730;2022-08-04T04:51:51;11.25;;;4.00;;
36715;SDS011;22699;51.034;3.730;2022-08-04T04:56:44;7.03;;;4.90;;
36715;SDS011;22699;51.034;3.730;2022-08-04T04:59:15;9.27;;;5.18;;
36715;SDS011;22699;51.034;3.730;2022-08-04T05:08:15;10.85;;;8.95;;
36715;SDS011;22699;51.034;3.730;2022-08-04T05:11:17;15.55;;;10.90;;
36715;SDS011;22699;51.034;3.730;2022-08-04T05:17:16;16.75;;;10.40;;
36715;SDS011;22699;51.034;3.730;2022-08-04T05:20:10;22.95;;;12.85;;
36715;SDS011;22699;51.034;3.730;2022-08-04T05:25:51;26.05;;;13.25;;
36715;SDS011;22699;51.034;3.730;2022-08-04T05:28:21;21.65;;;12.38;;
36715;SDS011;22699;51.034;3.730;2022-08-04T05:30:53;21.75;;;13.40;;
36715;SDS011;22699;51.034;3.730;2022-08-04T05:33:36;23.17;;;13.73;;
36715;SDS011;22699;51.034;3.730;2022-08-04T05:36:17;26.92;;;15.20;;
36715;SDS011;22699;51.034;3.730;2022-08-04T05:38:48;25.75;;;16.10;;
36715;SDS011;22699;51.034;3.730;2022-08-04T05:41:24;28.02;;;16.38;;
36715;SDS011;22699;51.034;3.730;2022-08-04T05:44:17;24.58;;;15.70;;
36715;SDS011;22699;51.034;3.730;2022-08-04T05:46:46;25.58;;;15.05;;
36715;SDS011;22699;51.034;3.730;2022-08-04T05:49:13;23.48;;;14.30;;
36715;SDS011;22699;51.034;3.730;2022-08-04T05:51:41;28.23;;;17.33;;
36715;SDS011;22699;51.034;3.730;2022-08-04T05:56:41;28.30;;;17.07;;
36715;SDS011;22699;51.034;3.730;2022-08-04T05:59:13;34.85;;;18.63;;
36715;SDS011;22699;51.034;3.730;2022-08-04T06:01:39;43.30;;;19.95;;
36715;SDS011;22699;51.034;3.730;2022-08-04T06:04:07;29.42;;;16.27;;
36715;SDS011;22699;51.034;3.730;2022-08-04T06:06:33;23.45;;;15.05;;
36715;SDS011;22699;51.034;3.730;2022-08-04T06:08:59;30.50;;;17.30;;
36715;SDS011;22699;51.034;3.730;2022-08-04T06:11:28;21.20;;;14.80;;
36715;SDS011;22699;51.034;3.730;2022-08-04T06:13:58;20.95;;;15.63;;
36715;SDS011;22699;51.034;3.730;2022-08-04T06:16:39;47.90;;;20.42;;
36715;SDS011;22699;51.034;3.730;2022-08-04T06:19:15;29.13;;;17.95;;
36715;SDS011;22699;51.034;3.730;2022-08-04T06:21:46;26.85;;;17.67;;
36715;SDS011;22699;51.034;3.730;2022-08-04T06:24:15;24.10;;;15.77;;
36715;SDS011;22699;51.034;3.730;2022-08-04T06:26:43;19.98;;;14.13;;
36715;SDS011;22699;51.034;3.730;2022-08-04T06:29:11;14.57;;;12.82;;
36715;SDS011;22699;51.034;3.730;2022-08-04T06:31:47;15.68;;;11.88;;
36715;SDS011;22699;51.034;3.730;2022-08-04T06:34:32;14.40;;;11.32;;
36715;SDS011;22699;51.034;3.730;2022-08-04T06:36:59;16.02;;;12.75;;
36715;SDS011;22699;51.034;3.730;2022-08-04T06:39:26;13.63;;;10.32;;
36715;SDS011;22699;51.034;3.730;2022-08-04T06:41:53;14.20;;;11.38;;
36715;SDS011;22699;51.034;3.730;2022-08-04T06:44:20;13.63;;;11.20;;
36715;SDS011;22699;51.034;3.730;2022-08-04T06:46:46;13.13;;;10.65;;
36715;SDS011;22699;51.034;3.730;2022-08-04T06:49:12;12.27;;;11.05;;
36715;SDS011;22699;51.034;3.730;2022-08-04T06:51:38;12.43;;;11.00;;
36715;SDS011;22699;51.034;3.730;2022-08-04T06:54:06;10.52;;;9.07;;
36715;SDS011;22699;51.034;3.730;2022-08-04T06:56:32;11.55;;;8.95;;
36715;SDS011;22699;51.034;3.730;2022-08-04T06:58:59;10.57;;;8.95;;
36715;SDS011;22699;51.034;3.730;2022-08-04T07:01:26;10.35;;;9.07;;
36715;SDS011;22699;51.034;3.730;2022-08-04T07:03:53;9.10;;;8.15;;
36715;SDS011;22699;51.034;3.730;2022-08-04T07:06:22;15.48;;;8.70;;
36715;SDS011;22699;51.034;3.730;2022-08-04T07:11:16;11.90;;;9.23;;
36715;SDS011;22699;51.034;3.730;2022-08-04T07:13:44;9.98;;;7.88;;
36715;SDS011;22699;51.034;3.730;2022-08-04T07:16:12;11.43;;;9.90;;
36715;SDS011;22699;51.034;3.730;2022-08-04T07:18:39;12.48;;;8.30;;
36715;SDS011;22699;51.034;3.730;2022-08-04T07:21:05;11.27;;;9.25;;
36715;SDS011;22699;51.034;3.730;2022-08-04T07:23:37;10.70;;;8.30;;
36715;SDS011;22699;51.034;3.730;2022-08-04T07:26:03;10.18;;;7.93;;
36715;SDS011;22699;51.034;3.730;2022-08-04T07:28:29;10.52;;;8.52;;
36715;SDS011;22699;51.034;3.730;2022-08-04T07:30:55;9.63;;;8.68;;
36715;SDS011;22699;51.034;3.730;2022-08-04T07:33:22;11.18;;;7.53;;
36715;SDS011;22699;51.034;3.730;2022-08-04T07:35:55;14.18;;;8.38;;
36715;SDS011;22699;51.034;3.730;2022-08-04T07:38:21;14.90;;;7.68;;
36715;SDS011;22699;51.034;3.730;2022-08-04T07:40:47;7.68;;;6.68;;
36715;SDS011;22699;51.034;3.730;2022-08-04T07:43:16;8.68;;;6.63;;
36715;SDS011;22699;51.034;3.730;2022-08-04T07:45:42;10.13;;;6.50;;
36715;SDS011;22699;51.034;3.730;2022-08-04T07:48:08;8.35;;;6.60;;
36715;SDS011;22699;51.034;3.730;2022-08-04T07:50:35;10.57;;;7.22;;
36715;SDS011;22699;51.034;3.730;2022-08-04T07:53:02;12.98;;;7.75;;
36715;SDS011;22699;51.034;3.730;2022-08-04T07:55:29;10.68;;;7.07;;
36715;SDS011;22699;51.034;3.730;2022-08-04T07:57:55;8.52;;;6.90;;
36715;SDS011;22699;51.034;3.730;2022-08-04T08:00:22;9.40;;;6.50;;
36715;SDS011;22699;51.034;3.730;2022-08-04T08:02:48;8.63;;;7.13;;
36715;SDS011;22699;51.034;3.730;2022-08-04T08:05:15;9.27;;;7.03;;
36715;SDS011;22699;51.034;3.730;2022-08-04T08:07:46;9.75;;;7.22;;
36715;SDS011;22699;51.034;3.730;2022-08-04T08:10:14;11.48;;;7.22;;
36715;SDS011;22699;51.034;3.730;2022-08-04T08:12:40;7.93;;;6.63;;
36715;SDS011;22699;51.034;3.730;2022-08-04T08:15:08;10.52;;;6.80;;
36715;SDS011;22699;51.034;3.730;2022-08-04T08:17:36;8.02;;;5.75;;
36715;SDS011;22699;51.034;3.730;2022-08-04T08:20:02;8.88;;;6.30;;
36715;SDS011;22699;51.034;3.730;2022-08-04T08:22:30;8.45;;;6.68;;
36715;SDS011;22699;51.034;3.730;2022-08-04T08:24:57;8.13;;;7.30;;
36715;SDS011;22699;51.034;3.730;2022-08-04T08:27:24;7.95;;;6.85;;
36715;SDS011;22699;51.034;3.730;2022-08-04T08:29:50;7.57;;;5.75;;
36715;SDS011;22699;51.034;3.730;2022-08-04T08:32:16;7.05;;;6.15;;
36715;SDS011;22699;51.034;3.730;2022-08-04T08:34:43;6.28;;;5.65;;
36715;SDS011;22699;51.034;3.730;2022-08-04T08:46:03;8.35;;;5.90;;
36715;SDS011;22699;51.034;3.730;2022-08-04T08:49:07;5.65;;;5.03;;
36715;SDS011;22699;51.034;3.730;2022-08-04T09:11:25;8.27;;;6.93;;
36715;SDS011;22699;51.034;3.730;2022-08-04T09:14:04;12.10;;;8.88;;
36715;SDS011;22699;51.034;3.730;2022-08-04T09:16:43;13.73;;;9.50;;
36715;SDS011;22699;51.034;3.730;2022-08-04T09:19:26;15.82;;;9.90;;
36715;SDS011;22699;51.034;3.730;2022-08-04T09:25:03;10.15;;;9.15;;
36715;SDS011;22699;51.034;3.730;2022-08-04T09:27:54;7.80;;;6.75;;
36715;SDS011;22699;51.034;3.730;2022-08-04T09:39:07;7.88;;;5.32;;
36715;SDS011;22699;51.034;3.730;2022-08-04T09:42:03;7.43;;;5.55;;
36715;SDS011;22699;51.034;3.730;2022-08-04T09:50:16;3.90;;;2.92;;
36715;SDS011;22699;51.034;3.730;2022-08-04T09:56:10;8.02;;;4.40;;
36715;SDS011;22699;51.034;3.730;2022-08-04T10:01:31;6.50;;;3.00;;
36715;SDS011;22699;51.034;3.730;2022-08-04T10:04:00;5.32;;;2.30;;
36715;SDS011;22699;51.034;3.730;2022-08-04T10:09:29;4.03;;;2.30;;
36715;SDS011;22699;51.034;3.730;2022-08-04T10:12:29;3.23;;;1.87;;
36715;SDS011;22699;51.034;3.730;2022-08-04T10:15:33;4.53;;;2.60;;
36715;SDS011;22699;51.034;3.730;2022-08-04T10:18:34;4.43;;;2.33;;
36715;SDS011;22699;51.034;3.730;2022-08-04T10:31:34;5.20;;;2.40;;
36715;SDS011;22699;51.034;3.730;2022-08-04T10:34:11;5.73;;;2.87;;
36715;SDS011;22699;51.034;3.730;2022-08-04T10:39:38;5.72;;;2.33;;
36715;SDS011;22699;51.034;3.730;2022-08-04T10:42:30;4.50;;;2.35;;
36715;SDS011;22699;51.034;3.730;2022-08-04T10:47:44;6.47;;;2.55;;
36715;SDS011;22699;51.034;3.730;2022-08-04T10:50:19;5.43;;;1.85;;
36715;SDS011;22699;51.034;3.730;2022-08-04T10:53:02;7.93;;;2.38;;
36715;SDS011;22699;51.034;3.730;2022-08-04T10:55:45;6.72;;;3.63;;
36715;SDS011;22699;51.034;3.730;2022-08-04T10:58:18;5.43;;;2.40;;
36715;SDS011;22699;51.034;3.730;2022-08-04T11:00:46;4.10;;;1.75;;
36715;SDS011;22699;51.034;3.730;2022-08-04T11:03:19;5.97;;;2.15;;
36715;SDS011;22699;51.034;3.730;2022-08-04T11:05:56;9.38;;;2.13;;
36715;SDS011;22699;51.034;3.730;2022-08-04T11:08:30;6.82;;;2.00;;
36715;SDS011;22699;51.034;3.730;2022-08-04T11:13:45;5.60;;;1.48;;
36715;SDS011;22699;51.034;3.730;2022-08-04T11:16:18;5.88;;;2.05;;
36715;SDS011;22699;51.034;3.730;2022-08-04T11:19:09;4.15;;;2.22;;
36715;SDS011;22699;51.034;3.730;2022-08-04T11:21:55;3.88;;;1.92;;
36715;SDS011;22699;51.034;3.730;2022-08-04T11:24:49;5.63;;;2.03;;
36715;SDS011;22699;51.034;3.730;2022-08-04T11:27:33;3.95;;;1.60;;
36715;SDS011;22699;51.034;3.730;2022-08-04T11:30:09;4.25;;;1.17;;
36715;SDS011;22699;51.034;3.730;2022-08-04T11:32:48;4.10;;;1.50;;
36715;SDS011;22699;51.034;3.730;2022-08-04T11:35:42;4.30;;;1.80;;
36715;SDS011;22699;51.034;3.730;2022-08-04T11:40:57;6.47;;;2.38;;
36715;SDS011;22699;51.034;3.730;2022-08-04T11:46:11;5.80;;;1.85;;
36715;SDS011;22699;51.034;3.730;2022-08-04T11:49:43;2.95;;;1.52;;
36715;SDS011;22699;51.034;3.730;2022-08-04T11:51:56;6.85;;;1.70;;
36715;SDS011;22699;51.034;3.730;2022-08-04T11:54:24;7.40;;;1.60;;
36715;SDS011;22699;51.034;3.730;2022-08-04T11:56:51;5.00;;;1.90;;
36715;SDS011;22699;51.034;3.730;2022-08-04T11:59:21;4.45;;;2.30;;
36715;SDS011;22699;51.034;3.730;2022-08-04T12:04:56;4.30;;;1.48;;
36715;SDS011;22699;51.034;3.730;2022-08-04T12:07:33;5.50;;;2.22;;
36715;SDS011;22699;51.034;3.730;2022-08-04T12:15:43;3.45;;;1.27;;
36715;SDS011;22699;51.034;3.730;2022-08-04T12:18:36;4.47;;;2.13;;
36715;SDS011;22699;51.034;3.730;2022-08-04T12:21:06;4.78;;;1.58;;
36715;SDS011;22699;51.034;3.730;2022-08-04T12:23:37;7.15;;;2.35;;
36715;SDS011;22699;51.034;3.730;2022-08-04T12:26:05;4.32;;;1.88;;
36715;SDS011;22699;51.034;3.730;2022-08-04T12:28:38;5.43;;;2.10;;
36715;SDS011;22699;51.034;3.730;2022-08-04T12:31:19;4.05;;;1.70;;
36715;SDS011;22699;51.034;3.730;2022-08-04T12:33:55;2.60;;;1.40;;
36715;SDS011;22699;51.034;3.730;2022-08-04T12:36:28;5.35;;;1.65;;
36715;SDS011;22699;51.034;3.730;2022-08-04T12:39:19;10.32;;;1.83;;
36715;SDS011;22699;51.034;3.730;2022-08-04T12:42:10;6.00;;;1.80;;
36715;SDS011;22699;51.034;3.730;2022-08-04T12:44:39;7.22;;;2.10;;
36715;SDS011;22699;51.034;3.730;2022-08-04T12:47:10;5.90;;;1.65;;
36715;SDS011;22699;51.034;3.730;2022-08-04T12:49:37;5.80;;;2.38;;
36715;SDS011;22699;51.034;3.730;2022-08-04T12:52:08;12.75;;;7.20;;
36715;SDS011;22699;51.034;3.730;2022-08-04T12:54:36;8.70;;;2.00;;
36715;SDS011;22699;51.034;3.730;2022-08-04T12:57:03;3.30;;;0.88;;
36715;SDS011;22699;51.034;3.730;2022-08-04T13:02:06;6.55;;;2.38;;
36715;SDS011;22699;51.034;3.730;2022-08-04T13:04:43;7.35;;;1.58;;
36715;SDS011;22699;51.034;3.730;2022-08-04T13:07:12;3.50;;;1.65;;
36715;SDS011;22699;51.034;3.730;2022-08-04T13:09:42;4.35;;;1.55;;
36715;SDS011;22699;51.034;3.730;2022-08-04T13:12:11;5.13;;;1.85;;
36715;SDS011;22699;51.034;3.730;2022-08-04T13:14:39;7.10;;;1.80;;
36715;SDS011;22699;51.034;3.730;2022-08-04T13:17:11;3.28;;;1.30;;
36715;SDS011;22699;51.034;3.730;2022-08-04T13:19:38;5.60;;;1.40;;
36715;SDS011;22699;51.034;3.730;2022-08-04T13:22:22;3.83;;;1.27;;
36715;SDS011;22699;51.034;3.730;2022-08-04T13:24:49;5.25;;;1.63;;
36715;SDS011;22699;51.034;3.730;2022-08-04T13:27:16;6.88;;;1.67;;
36715;SDS011;22699;51.034;3.730;2022-08-04T13:29:48;5.97;;;1.52;;
36715;SDS011;22699;51.034;3.730;2022-08-04T13:32:20;5.53;;;1.23;;
36715;SDS011;22699;51.034;3.730;2022-08-04T13:34:48;5.97;;;2.08;;
36715;SDS011;22699;51.034;3.730;2022-08-04T13:37:16;4.20;;;1.20;;
36715;SDS011;22699;51.034;3.730;2022-08-04T13:39:48;5.83;;;1.97;;
36715;SDS011;22699;51.034;3.730;2022-08-04T13:42:15;7.10;;;2.15;;
36715;SDS011;22699;51.034;3.730;2022-08-04T13:44:47;10.20;;;3.17;;
36715;SDS011;22699;51.034;3.730;2022-08-04T13:47:18;6.07;;;2.20;;
36715;SDS011;22699;51.034;3.730;2022-08-04T13:50:07;6.15;;;1.92;;
36715;SDS011;22699;51.034;3.730;2022-08-04T13:52:38;5.72;;;2.00;;
36715;SDS011;22699;51.034;3.730;2022-08-04T13:55:05;4.38;;;2.78;;
36715;SDS011;22699;51.034;3.730;2022-08-04T13:57:34;4.80;;;2.60;;
36715;SDS011;22699;51.034;3.730;2022-08-04T14:00:08;10.05;;;2.00;;
36715;SDS011;22699;51.034;3.730;2022-08-04T14:05:27;6.18;;;3.03;;
36715;SDS011;22699;51.034;3.730;2022-08-04T14:08:07;5.68;;;2.20;;
36715;SDS011;22699;51.034;3.730;2022-08-04T14:10:41;8.93;;;2.95;;
36715;SDS011;22699;51.034;3.730;2022-08-04T14:13:07;5.20;;;1.83;;
36715;SDS011;22699;51.034;3.730;2022-08-04T14:15:35;5.88;;;2.05;;
36715;SDS011;22699;51.034;3.730;2022-08-04T14:18:15;4.65;;;2.30;;
36715;SDS011;22699;51.034;3.730;2022-08-04T14:29:05;5.75;;;2.00;;
36715;SDS011;22699;51.034;3.730;2022-08-04T14:31:33;2.80;;;1.40;;
36715;SDS011;22699;51.034;3.730;2022-08-04T14:34:00;8.68;;;1.90;;
36715;SDS011;22699;51.034;3.730;2022-08-04T14:36:26;6.93;;;2.30;;
36715;SDS011;22699;51.034;3.730;2022-08-04T14:38:55;6.43;;;1.95;;
36715;SDS011;22699;51.034;3.730;2022-08-04T14:41:26;5.35;;;1.98;;
36715;SDS011;22699;51.034;3.730;2022-08-04T14:44:08;5.00;;;1.95;;
36715;SDS011;22699;51.034;3.730;2022-08-04T14:46:33;4.35;;;1.83;;
36715;SDS011;22699;51.034;3.730;2022-08-04T14:49:14;3.83;;;1.70;;
36715;SDS011;22699;51.034;3.730;2022-08-04T14:51:41;5.53;;;2.30;;
36715;SDS011;22699;51.034;3.730;2022-08-04T14:54:10;4.80;;;1.75;;
36715;SDS011;22699;51.034;3.730;2022-08-04T14:56:38;7.22;;;2.30;;
36715;SDS011;22699;51.034;3.730;2022-08-04T14:59:07;3.67;;;1.48;;
36715;SDS011;22699;51.034;3.730;2022-08-04T15:01:35;4.28;;;1.63;;
36715;SDS011;22699;51.034;3.730;2022-08-04T15:04:03;5.68;;;2.53;;
36715;SDS011;22699;51.034;3.730;2022-08-04T15:06:30;5.35;;;1.77;;
36715;SDS011;22699;51.034;3.730;2022-08-04T15:08:58;5.53;;;1.90;;
36715;SDS011;22699;51.034;3.730;2022-08-04T15:11:26;4.73;;;2.20;;
36715;SDS011;22699;51.034;3.730;2022-08-04T15:13:53;4.68;;;1.60;;
36715;SDS011;22699;51.034;3.730;2022-08-04T15:16:21;4.13;;;1.55;;
36715;SDS011;22699;51.034;3.730;2022-08-04T15:18:49;4.25;;;1.70;;
36715;SDS011;22699;51.034;3.730;2022-08-04T15:21:15;6.18;;;1.75;;
36715;SDS011;22699;51.034;3.730;2022-08-04T15:23:43;6.15;;;2.22;;
36715;SDS011;22699;51.034;3.730;2022-08-04T15:26:12;5.47;;;2.20;;
36715;SDS011;22699;51.034;3.730;2022-08-04T15:28:48;3.50;;;1.77;;
36715;SDS011;22699;51.034;3.730;2022-08-04T15:31:19;7.55;;;2.40;;
36715;SDS011;22699;51.034;3.730;2022-08-04T15:33:49;7.18;;;1.92;;
36715;SDS011;22699;51.034;3.730;2022-08-04T15:36:36;7.65;;;2.25;;
36715;SDS011;22699;51.034;3.730;2022-08-04T15:47:16;5.10;;;1.88;;
36715;SDS011;22699;51.034;3.730;2022-08-04T15:49:43;4.50;;;1.75;;
36715;SDS011;22699;51.034;3.730;2022-08-04T15:52:10;4.00;;;1.70;;
36715;SDS011;22699;51.034;3.730;2022-08-04T15:54:40;8.00;;;1.90;;
36715;SDS011;22699;51.034;3.730;2022-08-04T15:57:07;7.47;;;2.33;;
36715;SDS011;22699;51.034;3.730;2022-08-04T16:07:52;6.50;;;2.10;;
36715;SDS011;22699;51.034;3.730;2022-08-04T16:10:43;4.45;;;1.50;;
36715;SDS011;22699;51.034;3.730;2022-08-04T16:18:18;6.72;;;2.40;;
36715;SDS011;22699;51.034;3.730;2022-08-04T16:20:50;4.57;;;1.60;;
36715;SDS011;22699;51.034;3.730;2022-08-04T16:26:03;4.10;;;1.90;;
36715;SDS011;22699;51.034;3.730;2022-08-04T16:31:02;3.72;;;1.60;;
36715;SDS011;22699;51.034;3.730;2022-08-04T16:33:36;4.50;;;2.15;;
36715;SDS011;22699;51.034;3.730;2022-08-04T16:36:04;4.30;;;1.80;;
36715;SDS011;22699;51.034;3.730;2022-08-04T16:38:32;7.07;;;2.42;;
36715;SDS011;22699;51.034;3.730;2022-08-04T16:41:38;6.95;;;1.70;;
36715;SDS011;22699;51.034;3.730;2022-08-04T16:47:03;4.78;;;1.67;;
36715;SDS011;22699;51.034;3.730;2022-08-04T16:49:31;5.28;;;2.20;;
36715;SDS011;22699;51.034;3.730;2022-08-04T16:52:04;5.05;;;1.95;;
36715;SDS011;22699;51.034;3.730;2022-08-04T16:54:31;4.07;;;2.10;;
36715;SDS011;22699;51.034;3.730;2022-08-04T16:56:58;5.35;;;1.52;;
36715;SDS011;22699;51.034;3.730;2022-08-04T16:59:25;5.97;;;1.98;;
36715;SDS011;22699;51.034;3.730;2022-08-04T17:01:51;6.68;;;1.90;;
36715;SDS011;22699;51.034;3.730;2022-08-04T17:04:30;4.80;;;1.42;;
36715;SDS011;22699;51.034;3.730;2022-08-04T17:07:02;4.60;;;2.05;;
36715;SDS011;22699;51.034;3.730;2022-08-04T17:09:29;6.10;;;1.90;;
36715;SDS011;22699;51.034;3.730;2022-08-04T17:11:55;6.15;;;1.50;;
36715;SDS011;22699;51.034;3.730;2022-08-04T17:14:22;5.32;;;2.00;;
36715;SDS011;22699;51.034;3.730;2022-08-04T17:16:50;5.65;;;1.58;;
36715;SDS011;22699;51.034;3.730;2022-08-04T17:19:17;5.15;;;1.65;;
36715;SDS011;22699;51.034;3.730;2022-08-04T17:21:42;4.57;;;1.67;;
36715;SDS011;22699;51.034;3.730;2022-08-04T17:24:10;5.35;;;2.00;;
36715;SDS011;22699;51.034;3.730;2022-08-04T17:26:39;3.15;;;1.40;;
36715;SDS011;22699;51.034;3.730;2022-08-04T17:29:05;5.80;;;1.73;;
36715;SDS011;22699;51.034;3.730;2022-08-04T17:31:31;6.25;;;1.73;;
36715;SDS011;22699;51.034;3.730;2022-08-04T17:33:59;5.30;;;1.73;;
36715;SDS011;22699;51.034;3.730;2022-08-04T17:36:30;3.75;;;1.60;;
36715;SDS011;22699;51.034;3.730;2022-08-04T17:39:16;2.53;;;1.70;;
36715;SDS011;22699;51.034;3.730;2022-08-04T17:41:44;5.77;;;1.80;;
36715;SDS011;22699;51.034;3.730;2022-08-04T17:44:11;4.53;;;2.20;;
36715;SDS011;22699;51.034;3.730;2022-08-04T17:46:43;9.02;;;1.75;;
36715;SDS011;22699;51.034;3.730;2022-08-04T17:51:50;3.67;;;1.80;;
36715;SDS011;22699;51.034;3.730;2022-08-04T17:54:32;6.82;;;1.92;;
36715;SDS011;22699;51.034;3.730;2022-08-04T17:57:12;4.50;;;1.85;;
36715;SDS011;22699;51.034;3.730;2022-08-04T17:59:41;4.25;;;1.60;;
36715;SDS011;22699;51.034;3.730;2022-08-04T18:02:11;6.22;;;1.73;;
36715;SDS011;22699;51.034;3.730;2022-08-04T18:07:12;5.93;;;2.00;;
36715;SDS011;22699;51.034;3.730;2022-08-04T18:09:52;5.53;;;1.63;;
36715;SDS011;22699;51.034;3.730;2022-08-04T18:12:31;2.22;;;1.50;;
36715;SDS011;22699;51.034;3.730;2022-08-04T18:15:30;4.57;;;1.40;;
36715;SDS011;22699;51.034;3.730;2022-08-04T18:17:55;7.05;;;1.90;;
36715;SDS011;22699;51.034;3.730;2022-08-04T18:20:23;5.60;;;2.00;;
36715;SDS011;22699;51.034;3.730;2022-08-04T18:22:51;5.20;;;1.77;;
36715;SDS011;22699;51.034;3.730;2022-08-04T18:25:19;3.97;;;2.28;;
36715;SDS011;22699;51.034;3.730;2022-08-04T18:30:13;4.50;;;1.45;;
36715;SDS011;22699;51.034;3.730;2022-08-04T18:32:40;4.22;;;1.92;;
36715;SDS011;22699;51.034;3.730;2022-08-04T18:35:05;8.20;;;2.40;;
36715;SDS011;22699;51.034;3.730;2022-08-04T18:37:32;6.95;;;1.90;;
36715;SDS011;22699;51.034;3.730;2022-08-04T18:39:58;12.55;;;2.20;;
36715;SDS011;22699;51.034;3.730;2022-08-04T18:42:24;7.95;;;2.33;;
36715;SDS011;22699;51.034;3.730;2022-08-04T18:44:51;7.70;;;2.38;;
36715;SDS011;22699;51.034;3.730;2022-08-04T18:47:22;5.88;;;1.90;;
36715;SDS011;22699;51.034;3.730;2022-08-04T18:49:51;7.40;;;2.00;;
36715;SDS011;22699;51.034;3.730;2022-08-04T18:52:20;8.93;;;1.85;;
36715;SDS011;22699;51.034;3.730;2022-08-04T18:54:46;3.60;;;1.80;;
36715;SDS011;22699;51.034;3.730;2022-08-04T18:57:22;4.53;;;1.60;;
36715;SDS011;22699;51.034;3.730;2022-08-04T18:59:49;4.60;;;2.03;;
36715;SDS011;22699;51.034;3.730;2022-08-04T19:02:15;4.82;;;1.83;;
36715;SDS011;22699;51.034;3.730;2022-08-04T19:04:41;5.32;;;2.10;;
36715;SDS011;22699;51.034;3.730;2022-08-04T19:07:08;8.25;;;1.70;;
36715;SDS011;22699;51.034;3.730;2022-08-04T19:09:37;4.03;;;1.55;;
36715;SDS011;22699;51.034;3.730;2022-08-04T19:12:04;4.55;;;1.90;;
36715;SDS011;22699;51.034;3.730;2022-08-04T19:14:29;4.30;;;2.03;;
36715;SDS011;22699;51.034;3.730;2022-08-04T19:16:55;5.65;;;1.52;;
36715;SDS011;22699;51.034;3.730;2022-08-04T19:19:21;8.65;;;1.92;;
36715;SDS011;22699;51.034;3.730;2022-08-04T19:21:46;6.35;;;1.70;;
36715;SDS011;22699;51.034;3.730;2022-08-04T19:24:12;5.05;;;1.70;;
36715;SDS011;22699;51.034;3.730;2022-08-04T19:26:41;5.28;;;1.80;;
36715;SDS011;22699;51.034;3.730;2022-08-04T19:29:09;6.35;;;2.10;;
36715;SDS011;22699;51.034;3.730;2022-08-04T19:31:35;5.18;;;1.75;;
36715;SDS011;22699;51.034;3.730;2022-08-04T19:34:01;7.55;;;2.40;;
36715;SDS011;22699;51.034;3.730;2022-08-04T19:36:28;5.68;;;1.92;;
36715;SDS011;22699;51.034;3.730;2022-08-04T19:38:54;3.35;;;1.60;;
36715;SDS011;22699;51.034;3.730;2022-08-04T19:43:50;6.15;;;2.20;;
36715;SDS011;22699;51.034;3.730;2022-08-04T19:46:15;5.88;;;1.73;;
36715;SDS011;22699;51.034;3.730;2022-08-04T19:48:41;4.57;;;1.90;;
36715;SDS011;22699;51.034;3.730;2022-08-04T19:51:08;5.65;;;1.88;;
36715;SDS011;22699;51.034;3.730;2022-08-04T19:53:34;3.13;;;1.42;;